createdAt,value
2018-07-10T00:02:26.492Z,3.00
2018-07-10T00:05:09.112Z,3.63
2018-07-10T00:07:52.114Z,3.37
2018-07-10T00:10:31.333Z,3.30
2018-07-10T00:13:00.381Z,3.87
2018-07-10T00:15:29.381Z,4.13
2018-07-10T00:17:58.348Z,3.50
2018-07-10T00:20:27.703Z,4.07
2018-07-10T00:22:56.669Z,3.73
2018-07-10T00:25:25.621Z,3.80
2018-07-10T00:27:54.729Z,3.30
2018-07-10T00:30:23.903Z,3.20
2018-07-10T00:32:52.864Z,2.87
2018-07-10T00:35:21.910Z,3.70
2018-07-10T00:38:02.362Z,3.67
2018-07-10T00:40:31.435Z,3.80
2018-07-10T00:43:01.088Z,3.67
2018-07-10T00:45:30.092Z,3.30
2018-07-10T00:47:59.006Z,3.53
2018-07-10T00:50:28.053Z,4.10
2018-07-10T00:52:57.156Z,3.87
2018-07-10T00:55:26.276Z,3.50
2018-07-10T00:57:55.229Z,3.20
2018-07-10T01:00:30.041Z,3.60
2018-07-10T01:02:59.337Z,3.70
2018-07-10T01:05:29.743Z,3.10
2018-07-10T01:07:59.054Z,4.17
2018-07-10T01:10:27.983Z,3.23
2018-07-10T01:12:56.939Z,3.33
2018-07-10T01:15:27.160Z,3.60
2018-07-10T01:17:56.096Z,4.20
2018-07-10T01:20:25.176Z,4.17
2018-07-10T01:22:54.849Z,4.57
2018-07-10T01:25:24.769Z,3.83
2018-07-10T01:27:53.859Z,4.70
2018-07-10T01:30:23.918Z,3.83
2018-07-10T01:32:52.868Z,3.67
2018-07-10T01:35:21.860Z,3.87
2018-07-10T01:37:51.838Z,3.10
2018-07-10T01:40:20.895Z,3.53
2018-07-10T01:42:49.837Z,3.43
2018-07-10T01:45:18.805Z,4.00
2018-07-10T01:47:47.777Z,2.83
2018-07-10T01:50:16.754Z,3.13
2018-07-10T01:52:45.755Z,2.90
2018-07-10T01:55:14.737Z,3.13
2018-07-10T01:57:43.678Z,3.17
2018-07-10T02:00:17.742Z,3.30
2018-07-10T02:02:46.716Z,2.70
2018-07-10T02:05:15.673Z,3.07
2018-07-10T02:07:44.715Z,2.67
2018-07-10T02:10:13.813Z,2.60
2018-07-10T02:12:42.541Z,2.93
2018-07-10T02:15:11.450Z,2.90
2018-07-10T02:17:40.444Z,2.93
2018-07-10T02:20:09.381Z,3.17
2018-07-10T02:22:38.478Z,3.00
2018-07-10T02:25:07.433Z,2.90
2018-07-10T02:27:36.580Z,3.10
2018-07-10T02:30:05.643Z,3.30
2018-07-10T02:32:34.889Z,3.37
2018-07-10T02:35:04.314Z,2.47
2018-07-10T02:37:33.972Z,3.03
2018-07-10T02:40:02.918Z,2.90
2018-07-10T02:42:32.815Z,2.97
2018-07-10T02:45:02.056Z,3.80
2018-07-10T02:47:31.460Z,3.00
2018-07-10T02:50:00.588Z,2.97
2018-07-10T02:52:33.681Z,3.03
2018-07-10T02:55:02.633Z,3.10
2018-07-10T02:57:31.557Z,3.17
2018-07-10T03:00:00.556Z,3.07
2018-07-10T03:02:29.861Z,2.83
2018-07-10T03:05:00.866Z,3.27
2018-07-10T03:07:30.276Z,3.00
2018-07-10T03:10:00.326Z,2.97
2018-07-10T03:12:32.003Z,3.03
2018-07-10T03:15:06.404Z,2.97
2018-07-10T03:17:35.361Z,2.80
2018-07-10T03:20:05.018Z,3.00
2018-07-10T03:22:34.039Z,3.13
2018-07-10T03:25:03.197Z,3.00
2018-07-10T03:27:32.485Z,2.40
2018-07-10T03:30:02.301Z,2.70
2018-07-10T03:32:31.589Z,2.90
2018-07-10T03:35:00.653Z,2.57
2018-07-10T03:37:29.654Z,2.70
2018-07-10T03:39:58.693Z,2.90
2018-07-10T03:42:27.881Z,2.93
2018-07-10T03:44:56.873Z,2.90
2018-07-10T03:47:26.892Z,3.80
2018-07-10T03:49:55.848Z,3.13
2018-07-10T03:52:27.343Z,2.80
2018-07-10T03:54:58.057Z,2.90
2018-07-10T03:57:27.041Z,3.03
2018-07-10T04:00:00.112Z,3.53
2018-07-10T04:02:29.150Z,3.30
2018-07-10T04:04:58.293Z,3.70
2018-07-10T04:07:27.343Z,2.80
2018-07-10T04:09:56.891Z,3.30
2018-07-10T04:12:32.309Z,3.03
2018-07-10T04:15:01.943Z,2.90
2018-07-10T04:17:38.700Z,2.90
2018-07-10T04:20:08.145Z,3.20
2018-07-10T04:22:39.039Z,3.20
2018-07-10T04:25:08.477Z,2.90
2018-07-10T04:27:46.933Z,2.83
2018-07-10T04:30:21.336Z,2.97
2018-07-10T04:32:50.390Z,2.83
2018-07-10T04:35:23.498Z,2.50
2018-07-10T04:37:52.572Z,3.07
2018-07-10T04:40:21.706Z,3.00
2018-07-10T04:42:59.961Z,2.93
2018-07-10T04:45:39.580Z,4.33
2018-07-10T04:48:14.746Z,3.03
2018-07-10T04:50:45.900Z,2.50
2018-07-10T04:53:19.609Z,2.50
2018-07-10T04:55:48.597Z,2.40
2018-07-10T04:58:20.234Z,2.80
2018-07-10T05:00:57.870Z,2.50
2018-07-10T05:03:29.204Z,2.63
2018-07-10T05:06:02.355Z,2.20
2018-07-10T05:08:31.402Z,3.03
2018-07-10T05:11:00.624Z,2.97
2018-07-10T05:13:29.709Z,2.63
2018-07-10T05:16:00.906Z,3.23
2018-07-10T05:18:30.358Z,2.73
2018-07-10T05:21:00.396Z,2.40
2018-07-10T05:23:30.111Z,2.60
2018-07-10T05:25:59.514Z,2.60
2018-07-10T05:28:28.551Z,3.00
2018-07-10T05:31:00.222Z,2.10
2018-07-10T05:33:29.101Z,3.50
2018-07-10T05:35:58.714Z,2.57
2018-07-10T05:38:38.466Z,2.87
2018-07-10T05:41:08.505Z,3.20
2018-07-10T05:43:44.572Z,3.10
2018-07-10T05:46:13.682Z,2.63
2018-07-10T05:48:56.933Z,2.70
2018-07-10T05:51:29.511Z,2.80
2018-07-10T05:54:01.178Z,3.10
2018-07-10T05:56:30.400Z,3.30
2018-07-10T05:59:01.204Z,3.00
2018-07-10T06:01:30.387Z,3.20
2018-07-10T06:03:59.511Z,2.70
2018-07-10T06:06:28.818Z,3.30
2018-07-10T06:08:58.052Z,2.80
2018-07-10T06:11:26.845Z,2.77
2018-07-10T06:13:56.591Z,2.93
2018-07-10T06:16:25.841Z,3.07
2018-07-10T06:18:56.341Z,3.13
2018-07-10T06:21:34.430Z,3.30
2018-07-10T06:24:04.347Z,3.43
2018-07-10T06:26:34.089Z,3.00
2018-07-10T06:29:05.642Z,3.00
2018-07-10T06:31:39.918Z,2.90
2018-07-10T06:34:10.454Z,2.13
2018-07-10T06:36:57.534Z,2.77
2018-07-10T06:39:26.710Z,2.70
2018-07-10T06:42:14.674Z,3.40
2018-07-10T06:44:50.202Z,3.00
2018-07-10T06:47:23.868Z,2.87
2018-07-10T06:49:53.029Z,2.90
2018-07-10T06:52:23.025Z,2.70
2018-07-10T06:55:14.338Z,3.10
2018-07-10T06:57:55.169Z,2.80
2018-07-10T07:00:24.777Z,2.97
2018-07-10T07:02:53.865Z,2.67
2018-07-10T07:05:22.943Z,3.00
2018-07-10T07:07:52.797Z,2.53
2018-07-10T07:10:21.918Z,2.50
2018-07-10T07:12:51.289Z,2.83
2018-07-10T07:15:21.397Z,2.40
2018-07-10T07:17:51.779Z,2.50
2018-07-10T07:20:21.864Z,2.73
2018-07-10T07:22:51.586Z,2.90
2018-07-10T07:25:20.395Z,3.53
2018-07-10T07:27:49.464Z,3.30
2018-07-10T07:30:18.723Z,3.40
2018-07-10T07:32:48.697Z,2.70
2018-07-10T07:35:17.960Z,2.70
2018-07-10T07:37:47.307Z,2.70
2018-07-10T07:40:16.255Z,2.63
2018-07-10T07:42:45.331Z,2.80
2018-07-10T07:45:14.608Z,2.63
2018-07-10T07:47:44.265Z,2.63
2018-07-10T07:50:13.717Z,3.20
2018-07-10T07:52:42.798Z,3.10
2018-07-10T07:55:12.361Z,3.40
2018-07-10T07:57:41.653Z,3.30
2018-07-10T08:00:11.069Z,3.67
2018-07-10T08:02:40.724Z,3.20
2018-07-10T08:05:09.975Z,3.13
2018-07-10T08:07:39.147Z,3.90
2018-07-10T08:10:08.519Z,3.40
2018-07-10T08:12:37.879Z,3.30
2018-07-10T08:15:07.513Z,3.87
2018-07-10T08:17:37.144Z,3.47
2018-07-10T08:20:07.293Z,3.17
2018-07-10T08:22:36.692Z,3.20
2018-07-10T08:25:06.711Z,3.50
2018-07-10T08:27:38.009Z,3.50
2018-07-10T08:30:07.898Z,3.90
2018-07-10T08:32:40.113Z,3.30
2018-07-10T08:35:09.933Z,3.30
2018-07-10T08:37:39.678Z,4.13
2018-07-10T08:40:09.078Z,3.47
2018-07-10T08:42:39.974Z,3.00
2018-07-10T08:45:09.032Z,3.40
2018-07-10T08:47:38.423Z,4.80
2018-07-10T08:50:07.399Z,4.83
2018-07-10T08:52:37.023Z,3.33
2018-07-10T08:55:06.213Z,3.23
2018-07-10T08:57:35.910Z,4.10
2018-07-10T09:00:05.301Z,3.20
2018-07-10T09:02:34.334Z,3.23
2018-07-10T09:05:03.719Z,3.57
2018-07-10T09:07:33.014Z,3.10
2018-07-10T09:10:02.241Z,3.77
2018-07-10T09:12:31.190Z,3.00
2018-07-10T09:15:00.154Z,3.33
2018-07-10T09:17:29.631Z,3.73
2018-07-10T09:20:01.495Z,2.90
2018-07-10T09:22:31.317Z,3.37
2018-07-10T09:25:01.614Z,3.30
2018-07-10T09:27:30.777Z,3.27
2018-07-10T09:30:00.358Z,3.50
2018-07-10T09:32:34.975Z,4.20
2018-07-10T09:35:04.034Z,4.77
2018-07-10T09:37:38.707Z,3.93
2018-07-10T09:40:12.967Z,3.20
2018-07-10T09:43:14.261Z,3.63
2018-07-10T09:45:43.208Z,4.40
2018-07-10T09:48:12.365Z,3.50
2018-07-10T09:50:41.638Z,4.50
2018-07-10T09:53:10.638Z,3.97
2018-07-10T09:55:39.332Z,3.90
2018-07-10T09:58:08.436Z,3.50
2018-07-10T10:00:43.042Z,3.33
2018-07-10T10:03:12.333Z,4.47
2018-07-10T10:05:43.498Z,3.90
2018-07-10T10:08:12.871Z,4.33
2018-07-10T10:10:41.907Z,4.30
2018-07-10T10:13:11.273Z,4.10
2018-07-10T10:15:40.897Z,3.80
2018-07-10T10:18:10.157Z,4.70
2018-07-10T10:20:40.488Z,4.97
2018-07-10T10:23:11.518Z,4.33
2018-07-10T10:25:43.131Z,5.00
2018-07-10T10:28:11.870Z,4.40
2018-07-10T10:30:41.942Z,4.30
2018-07-10T10:33:11.259Z,4.60
2018-07-10T10:35:40.298Z,4.67
2018-07-10T10:38:09.326Z,4.80
2018-07-10T10:40:39.721Z,5.13
2018-07-10T10:43:09.932Z,4.90
2018-07-10T10:45:42.159Z,5.10
2018-07-10T10:48:12.760Z,4.80
2018-07-10T10:50:45.053Z,4.70
2018-07-10T10:53:14.056Z,5.40
2018-07-10T10:55:43.098Z,4.50
2018-07-10T10:58:12.092Z,4.63
2018-07-10T11:00:41.477Z,4.93
2018-07-10T11:03:10.227Z,4.10
2018-07-10T11:05:40.111Z,4.33
2018-07-10T11:08:09.152Z,4.30
2018-07-10T11:10:37.901Z,4.63
2018-07-10T11:13:06.938Z,4.30
2018-07-10T11:15:41.738Z,5.10
2018-07-10T11:18:12.763Z,4.93
2018-07-10T11:21:23.445Z,4.70
2018-07-10T11:23:58.618Z,4.63
2018-07-10T11:26:33.765Z,5.90
2018-07-10T11:29:03.307Z,5.63
2018-07-10T11:31:32.291Z,4.00
2018-07-10T11:34:01.358Z,4.33
2018-07-10T11:36:30.621Z,4.80
2018-07-10T11:39:01.419Z,4.00
2018-07-10T11:41:31.243Z,3.83
2018-07-10T11:44:04.444Z,3.67
2018-07-10T11:46:33.801Z,4.10
2018-07-10T11:49:02.870Z,5.80
2018-07-10T11:51:32.049Z,4.90
2018-07-10T11:54:02.220Z,5.37
2018-07-10T11:56:31.653Z,4.90
2018-07-10T11:59:01.359Z,4.80
2018-07-10T12:01:31.443Z,5.17
2018-07-10T12:04:00.563Z,5.70
2018-07-10T12:06:29.708Z,5.20
2018-07-10T12:09:00.207Z,5.80
2018-07-10T12:11:30.462Z,5.37
2018-07-10T12:13:59.831Z,5.70
2018-07-10T12:16:28.962Z,5.93
2018-07-10T12:18:58.057Z,6.70
2018-07-10T12:21:27.097Z,6.20
2018-07-10T12:23:56.346Z,5.47
2018-07-10T12:26:25.136Z,6.23
2018-07-10T12:28:53.994Z,6.37
2018-07-10T12:31:23.014Z,6.03
2018-07-10T12:33:53.385Z,5.90
2018-07-10T12:36:23.042Z,7.00
2018-07-10T12:38:51.984Z,5.93
2018-07-10T12:41:20.918Z,5.60
2018-07-10T12:43:49.695Z,5.90
2018-07-10T12:46:18.570Z,5.83
2018-07-10T12:48:47.560Z,6.17
2018-07-10T12:51:16.569Z,5.43
2018-07-10T12:53:45.361Z,5.80
2018-07-10T12:56:14.204Z,6.20
2018-07-10T12:58:43.830Z,7.30
2018-07-10T13:01:12.810Z,6.03
2018-07-10T13:03:42.685Z,6.70
2018-07-10T13:06:11.781Z,6.37
2018-07-10T13:08:40.841Z,6.80
2018-07-10T13:11:09.557Z,6.10
2018-07-10T13:13:38.470Z,6.00
2018-07-10T13:16:07.445Z,6.17
2018-07-10T13:18:36.421Z,6.47
2018-07-10T13:21:05.467Z,5.63
2018-07-10T13:23:34.430Z,5.20
2018-07-10T13:26:03.557Z,6.00
2018-07-10T13:28:32.550Z,6.83
2018-07-10T13:31:01.517Z,8.60
2018-07-10T13:33:30.505Z,8.70
2018-07-10T13:35:59.505Z,9.00
2018-07-10T13:38:28.470Z,9.37
2018-07-10T13:40:58.913Z,9.33
2018-07-10T13:43:29.111Z,9.73
2018-07-10T13:45:58.145Z,10.30
2018-07-10T13:48:27.115Z,9.90
2018-07-10T13:50:56.173Z,9.60
2018-07-10T13:53:25.117Z,9.20
2018-07-10T13:55:54.178Z,9.77
2018-07-10T13:58:28.626Z,11.43
2018-07-10T14:01:05.927Z,9.20
2018-07-10T14:03:35.390Z,9.10
2018-07-10T14:06:05.308Z,9.40
2018-07-10T14:08:34.343Z,8.83
2018-07-10T14:11:03.753Z,9.57
2018-07-10T14:13:32.594Z,10.00
2018-07-10T14:16:01.462Z,11.30
2018-07-10T14:18:30.494Z,11.20
2018-07-10T14:21:01.210Z,11.97
2018-07-10T14:23:30.190Z,10.23
2018-07-10T14:25:59.183Z,9.17
2018-07-10T14:28:28.232Z,8.07
2018-07-10T14:30:57.483Z,8.37
2018-07-10T14:33:26.441Z,7.63
2018-07-10T14:35:55.522Z,8.27
2018-07-10T14:38:25.944Z,7.60
2018-07-10T14:40:55.556Z,7.77
2018-07-10T14:43:27.443Z,8.40
2018-07-10T14:46:00.610Z,7.03
2018-07-10T14:48:32.812Z,7.57
2018-07-10T14:51:01.811Z,7.03
2018-07-10T14:53:30.790Z,7.90
2018-07-10T14:55:59.766Z,6.30
2018-07-10T14:58:28.707Z,7.40
2018-07-10T15:00:57.810Z,7.30
2018-07-10T15:03:26.982Z,8.77
2018-07-10T15:05:56.009Z,7.03
2018-07-10T15:08:24.948Z,7.27
2018-07-10T15:10:53.959Z,7.33
2018-07-10T15:13:22.950Z,6.10
2018-07-10T15:16:00.794Z,7.00
2018-07-10T15:18:42.581Z,6.70
2018-07-10T15:21:11.573Z,7.00
2018-07-10T15:23:40.995Z,7.90
2018-07-10T15:26:09.855Z,7.27
2018-07-10T15:28:38.831Z,6.23
2018-07-10T15:31:07.804Z,6.83
2018-07-10T15:33:36.808Z,4.53
2018-07-10T15:36:05.852Z,3.83
2018-07-10T15:38:34.845Z,3.80
2018-07-10T15:41:03.834Z,4.10
2018-07-10T15:43:32.857Z,2.90
2018-07-10T15:46:02.330Z,3.83
2018-07-10T15:48:31.381Z,4.97
2018-07-10T15:51:00.639Z,4.53
2018-07-10T15:53:29.702Z,4.30
2018-07-10T15:55:58.854Z,4.50
2018-07-10T15:58:27.842Z,4.43
2018-07-10T16:00:56.858Z,3.90
2018-07-10T16:03:25.925Z,3.80
2018-07-10T16:05:55.037Z,3.97
2018-07-10T16:08:24.659Z,4.13
2018-07-10T16:11:08.438Z,4.00
2018-07-10T16:13:41.736Z,3.83
2018-07-10T16:16:14.553Z,3.83
2018-07-10T16:18:48.451Z,4.03
2018-07-10T16:21:17.382Z,4.20
2018-07-10T16:23:46.637Z,4.90
2018-07-10T16:26:21.398Z,4.10
2018-07-10T16:28:51.506Z,3.67
2018-07-10T16:31:21.372Z,4.03
2018-07-10T16:33:50.281Z,3.93
2018-07-10T16:36:19.372Z,3.70
2018-07-10T16:38:48.474Z,3.83
2018-07-10T16:41:23.119Z,3.43
2018-07-10T16:43:52.786Z,3.80
2018-07-10T16:46:23.212Z,3.10
2018-07-10T16:49:02.210Z,4.20
2018-07-10T16:51:42.055Z,3.30
2018-07-10T16:54:11.290Z,2.97
2018-07-10T16:56:40.229Z,3.03
2018-07-10T16:59:09.410Z,2.63
2018-07-10T17:01:38.487Z,2.80
2018-07-10T17:04:07.450Z,3.20
2018-07-10T17:06:37.013Z,3.13
2018-07-10T17:09:06.075Z,3.10
2018-07-10T17:11:35.245Z,3.07
2018-07-10T17:14:04.372Z,3.43
2018-07-10T17:16:33.652Z,3.00
2018-07-10T17:19:02.762Z,3.17
2018-07-10T17:21:31.877Z,2.30
2018-07-10T17:24:02.761Z,2.87
2018-07-10T17:26:32.212Z,2.67
2018-07-10T17:29:06.072Z,3.00
2018-07-10T17:31:35.224Z,3.30
2018-07-10T17:34:04.394Z,3.23
2018-07-10T17:36:33.476Z,4.07
2018-07-10T17:39:02.731Z,3.90
2018-07-10T17:41:33.361Z,4.63
2018-07-10T17:44:02.985Z,4.57
2018-07-10T17:46:32.707Z,4.67
2018-07-10T17:49:02.006Z,4.30
2018-07-10T17:51:31.472Z,4.90
2018-07-10T17:54:00.961Z,4.93
2018-07-10T17:56:30.193Z,4.53
2018-07-10T17:59:00.430Z,4.03
2018-07-10T18:01:29.460Z,4.60
2018-07-10T18:03:58.146Z,4.80
2018-07-10T18:06:26.745Z,5.53
2018-07-10T18:08:55.682Z,5.50
2018-07-10T18:11:24.637Z,5.17
2018-07-10T18:13:53.614Z,4.70
2018-07-10T18:16:24.841Z,5.60
2018-07-10T18:18:53.787Z,4.70
2018-07-10T18:21:22.740Z,4.57
2018-07-10T18:23:51.826Z,4.80
2018-07-10T18:26:20.806Z,5.00
2018-07-10T18:28:49.863Z,5.27
2018-07-10T18:31:19.049Z,4.60
2018-07-10T18:33:48.027Z,5.07
2018-07-10T18:36:16.958Z,4.27
2018-07-10T18:38:46.116Z,4.17
2018-07-10T18:41:14.995Z,5.00
2018-07-10T18:43:44.038Z,4.00
2018-07-10T18:46:13.136Z,4.47
2018-07-10T18:48:42.390Z,4.17
2018-07-10T18:51:11.392Z,4.57
2018-07-10T18:53:40.666Z,3.73
2018-07-10T18:56:10.174Z,4.50
2018-07-10T18:58:50.202Z,3.63
2018-07-10T19:01:19.861Z,4.20
2018-07-10T19:03:49.393Z,4.23
2018-07-10T19:06:22.555Z,3.60
2018-07-10T19:08:52.056Z,2.97
2018-07-10T19:11:24.178Z,3.20
2018-07-10T19:13:53.105Z,3.23
2018-07-10T19:16:23.497Z,2.77
2018-07-10T19:18:53.234Z,2.90
2018-07-10T19:21:27.422Z,2.60
2018-07-10T19:24:03.543Z,2.90
2018-07-10T19:26:34.304Z,2.97
2018-07-10T19:29:13.006Z,3.00
2018-07-10T19:31:42.374Z,2.90
2018-07-10T19:34:11.465Z,3.30
2018-07-10T19:36:40.724Z,2.90
2018-07-10T19:39:09.721Z,3.97
2018-07-10T19:41:38.684Z,3.60
2018-07-10T19:44:07.954Z,3.40
2018-07-10T19:46:36.960Z,2.83
2018-07-10T19:49:06.768Z,3.40
2018-07-10T19:51:36.516Z,3.30
2018-07-10T19:54:09.771Z,3.60
2018-07-10T19:56:40.054Z,3.27
2018-07-10T19:59:11.424Z,3.57
2018-07-10T20:01:52.528Z,3.13
2018-07-10T20:04:28.523Z,3.10
2018-07-10T20:07:12.013Z,3.80
2018-07-10T20:09:49.396Z,3.47
2018-07-10T20:12:22.970Z,3.17
2018-07-10T20:14:58.978Z,3.37
2018-07-10T20:17:29.989Z,3.50
2018-07-10T20:20:08.849Z,2.87
2018-07-10T20:22:56.139Z,3.30
2018-07-10T20:26:03.345Z,3.50
2018-07-10T20:28:42.154Z,3.40
2018-07-10T20:31:19.814Z,3.87
2018-07-10T20:33:55.407Z,3.67
2018-07-10T20:36:25.346Z,3.30
2018-07-10T20:38:56.785Z,3.63
2018-07-10T20:41:26.479Z,3.23
2018-07-10T20:43:55.546Z,3.43
2018-07-10T20:46:24.933Z,3.77
2018-07-10T20:48:58.083Z,3.57
2018-07-10T20:51:31.498Z,3.77
2018-07-10T20:54:15.779Z,4.10
2018-07-10T20:57:55.646Z,3.77
2018-07-10T21:00:25.698Z,4.00
2018-07-10T21:04:05.903Z,3.83
2018-07-10T21:06:37.233Z,4.40
2018-07-10T21:09:12.104Z,4.23
2018-07-10T21:12:53.333Z,3.97
2018-07-10T21:15:24.482Z,3.80
2018-07-10T21:18:00.318Z,4.23
2018-07-10T21:21:35.218Z,3.80
2018-07-10T21:24:27.179Z,3.93
2018-07-10T21:27:01.958Z,4.43
2018-07-10T21:29:37.822Z,4.37
2018-07-10T21:32:09.815Z,3.70
2018-07-10T21:34:46.874Z,4.00
2018-07-10T21:38:32.809Z,3.93
2018-07-10T21:41:23.486Z,3.70
2018-07-10T21:43:57.493Z,3.63
2018-07-10T21:46:40.267Z,3.80
2018-07-10T21:49:17.712Z,3.87
2018-07-10T21:51:47.765Z,4.73
2018-07-10T21:54:16.785Z,4.53
2018-07-10T21:56:45.903Z,3.97
2018-07-10T21:59:16.292Z,4.80
2018-07-10T22:01:52.831Z,4.73
2018-07-10T22:04:24.770Z,4.00
2018-07-10T22:06:55.635Z,4.17
2018-07-10T22:09:26.803Z,4.60
2018-07-10T22:11:56.230Z,4.93
2018-07-10T22:14:25.534Z,5.57
2018-07-10T22:16:54.559Z,4.90
2018-07-10T22:19:25.611Z,5.03
2018-07-10T22:21:55.449Z,4.57
2018-07-10T22:24:25.768Z,4.60
2018-07-10T22:26:57.438Z,4.77
2018-07-10T22:29:31.987Z,5.50
2018-07-10T22:32:02.208Z,5.80
2018-07-10T22:34:32.034Z,4.67
2018-07-10T22:37:01.029Z,5.03
2018-07-10T22:39:30.029Z,4.83
2018-07-10T22:42:01.391Z,5.23
2018-07-10T22:44:33.730Z,5.30
2018-07-10T22:47:02.780Z,4.73
2018-07-10T22:49:31.737Z,4.43
2018-07-10T22:52:01.690Z,4.50
2018-07-10T22:54:33.379Z,5.20
2018-07-10T22:57:02.889Z,5.33
2018-07-10T22:59:31.959Z,4.80
2018-07-10T23:02:01.067Z,4.73
2018-07-10T23:04:30.191Z,5.60
2018-07-10T23:06:59.147Z,5.10
2018-07-10T23:09:28.386Z,4.60
2018-07-10T23:11:58.453Z,4.80
2018-07-10T23:14:27.899Z,5.13
2018-07-10T23:16:56.992Z,5.17
2018-07-10T23:19:26.985Z,5.07
2018-07-10T23:21:56.805Z,6.17
2018-07-10T23:24:25.826Z,5.80
2018-07-10T23:26:54.995Z,5.47
2018-07-10T23:29:40.233Z,5.50
2018-07-10T23:32:09.412Z,5.10
2018-07-10T23:34:38.433Z,5.43
2018-07-10T23:37:12.210Z,5.80
2018-07-10T23:39:46.494Z,5.50
2018-07-10T23:42:24.576Z,5.80
2018-07-10T23:44:53.595Z,5.30
2018-07-10T23:47:29.182Z,5.40
2018-07-10T23:50:04.176Z,5.70
2018-07-10T23:52:56.096Z,5.47
2018-07-10T23:55:25.198Z,5.90
2018-07-10T23:57:54.162Z,5.60
